Time;durP1;ratioP1;P1;durP2;ratioP2;P2;SDS_P1;SDS_P2;PMS_P1;PMS_P2;Temp;Humidity;BMP_temperature;BMP_pressure;BME280_temperature;BME280_humidity;BME280_pressure;Samples;Min_cycle;Max_cycle;Signal;HPM_P1;HPM_P2
2021/12/24 00:00:20;;;;;;;27.60;13.50;;;;;;;-0.24;93.30;97913.64;103725;1312;24159;-30
2021/12/24 00:02:46;;;;;;;28.40;14.10;;;;;;;-0.46;92.23;97912.02;103767;1312;24240;-30
2021/12/24 00:05:13;;;;;;;34.00;15.40;;;;;;;-0.88;94.24;97919.20;103749;1312;24340;-26
2021/12/24 00:07:39;;;;;;;19.70;10.80;;;;;;;-0.63;94.48;97919.58;103776;1313;22591;-29
2021/12/24 00:10:06;;;;;;;24.70;12.70;;;;;;;-0.51;93.50;97910.56;103812;1301;22896;-26
2021/12/24 00:12:36;;;;;;;28.40;13.40;;;;;;;-0.66;92.82;97910.63;103805;1313;24224;-30
2021/12/24 00:15:14;;;;;;;24.80;12.70;;;;;;;-1.05;95.55;97906.98;103658;1314;23905;-27
2021/12/24 00:17:40;;;;;;;29.80;17.90;;;;;;;-1.23;97.06;97908.51;103674;1314;24292;-26
2021/12/24 00:20:34;;;;;;;31.60;15.40;;;;;;;-1.06;96.63;97906.72;103657;1304;24242;-27
2021/12/24 00:23:23;;;;;;;38.10;17.90;;;;;;;-1.23;96.49;97889.38;103679;1314;24202;-26
2021/12/24 00:35:36;;;;;;;31.80;14.50;;;;;;;-1.39;98.60;97890.27;103924;1310;22443;-26
2021/12/24 00:38:03;;;;;;;28.50;15.80;;;;;;;-1.27;98.42;97893.48;103850;1314;24676;-30
2021/12/24 00:40:32;;;;;;;32.10;14.20;;;;;;;-1.27;97.99;97890.42;103774;1316;22809;-30
2021/12/24 00:42:58;;;;;;;26.00;12.90;;;;;;;-1.28;98.41;97881.95;103779;1305;23035;-31
2021/12/24 00:45:26;;;;;;;34.40;14.20;;;;;;;-1.21;97.89;97878.52;103906;1312;24152;-30
2021/12/24 00:47:52;;;;;;;35.60;17.10;;;;;;;-1.26;97.89;97873.66;103732;1310;24370;-30
2021/12/24 00:50:23;;;;;;;35.50;14.00;;;;;;;-1.22;98.17;97874.16;103837;1312;24179;-31
2021/12/24 00:52:53;;;;;;;31.20;13.40;;;;;;;-1.25;97.69;97870.77;103887;1312;22459;-26
2021/12/24 00:55:21;;;;;;;40.70;16.80;;;;;;;-1.20;98.05;97863.25;103761;1314;24391;-31
2021/12/24 00:57:49;;;;;;;26.80;13.20;;;;;;;-1.12;97.50;97857.61;103912;1314;24276;-30
2021/12/24 01:00:24;;;;;;;40.30;15.10;;;;;;;-1.21;97.21;97854.15;103812;1313;24365;-31
2021/12/24 01:02:51;;;;;;;31.10;16.10;;;;;;;-1.15;97.74;97848.41;103762;1313;24278;-26
2021/12/24 01:05:17;;;;;;;26.40;14.00;;;;;;;-1.08;97.25;97843.02;103775;1314;24185;-26
2021/12/24 01:07:45;;;;;;;31.60;15.60;;;;;;;-1.09;97.32;97843.67;103946;1314;24144;-31
2021/12/24 01:10:12;;;;;;;30.50;15.10;;;;;;;-1.11;97.51;97851.58;103838;1313;24271;-30
2021/12/24 01:12:38;;;;;;;21.10;11.50;;;;;;;-0.94;97.55;97843.98;103506;1312;24120;-30
2021/12/24 01:15:06;;;;;;;28.80;12.70;;;;;;;-0.95;97.48;97833.69;103675;1314;24940;-30
2021/12/24 01:20:04;;;;;;;16.80;9.80;;;;;;;-1.01;98.02;97825.59;103713;1314;24222;-26
2021/12/24 01:25:08;;;;;;;24.70;11.00;;;;;;;-0.84;97.80;97828.91;103653;1313;24222;-30
2021/12/24 01:37:49;;;;;;;26.60;10.40;;;;;;;-1.03;98.62;97828.25;103679;1312;24317;-30
2021/12/24 01:37:54;;;;;;;24.20;13.40;;;;;;;-0.75;97.90;97837.63;103706;1313;24153;-30
2021/12/24 01:42:49;;;;;;;27.30;11.60;;;;;;;-1.00;99.15;97816.30;103705;1312;24276;-26
2021/12/24 01:45:18;;;;;;;22.00;11.40;;;;;;;-1.06;99.70;97816.39;103720;1304;24352;-26
2021/12/24 01:47:44;;;;;;;24.70;12.70;;;;;;;-0.88;99.85;97809.83;103702;1314;24223;-26
2021/12/24 01:50:10;;;;;;;17.90;9.70;;;;;;;-0.84;99.29;97804.30;103722;1312;22458;-26
2021/12/24 01:52:37;;;;;;;19.00;11.10;;;;;;;-0.79;98.77;97808.52;103757;1313;24291;-25
2021/12/24 01:55:04;;;;;;;17.30;8.80;;;;;;;-0.88;99.21;97800.34;103669;1316;22792;-25
2021/12/24 01:57:32;;;;;;;23.30;12.20;;;;;;;-0.81;99.24;97784.40;103874;1310;24219;-30
2021/12/24 01:59:59;;;;;;;20.70;11.20;;;;;;;-0.94;99.44;97788.52;103809;1310;24338;-30
2021/12/24 02:02:27;;;;;;;22.80;11.30;;;;;;;-0.96;99.92;97783.60;103801;1310;24355;-26
2021/12/24 02:04:53;;;;;;;16.30;11.30;;;;;;;-0.92;100.00;97774.77;103865;1304;23983;-30
2021/12/24 02:07:18;;;;;;;13.40;10.40;;;;;;;-0.92;99.97;97766.51;103814;1312;24174;-26
2021/12/24 02:09:44;;;;;;;12.70;8.00;;;;;;;-0.96;99.86;97756.73;103870;1312;22603;-30
2021/12/24 02:12:11;;;;;;;21.20;11.40;;;;;;;-1.01;100.00;97755.30;103816;1314;26063;-26
2021/12/24 02:14:39;;;;;;;14.10;8.80;;;;;;;-1.04;100.00;97754.54;104265;1312;22461;-31
2021/12/24 02:29:32;;;;;;;21.80;10.10;;;;;;;-0.99;99.89;97749.63;104025;1314;22734;-30
2021/12/24 02:31:58;;;;;;;20.30;10.30;;;;;;;-0.86;99.56;97743.02;104028;1312;24132;-26
2021/12/24 02:34:24;;;;;;;20.20;9.50;;;;;;;-0.93;99.67;97745.81;103843;1312;22461;-26
2021/12/24 02:36:50;;;;;;;10.20;7.50;;;;;;;-0.92;99.43;97737.52;103898;1310;24148;-30
2021/12/24 02:39:16;;;;;;;12.10;6.60;;;;;;;-1.04;99.91;97743.19;103903;1314;24132;-26
2021/12/24 02:41:43;;;;;;;15.10;8.90;;;;;;;-1.02;99.96;97739.27;103838;1313;24132;-26
2021/12/24 02:44:10;;;;;;;15.80;10.00;;;;;;;-0.86;99.54;97734.69;103715;1313;24159;-31
2021/12/24 02:49:09;;;;;;;16.60;10.20;;;;;;;-0.96;99.90;97731.62;103528;1312;24149;-29
2021/12/24 02:54:05;;;;;;;11.80;7.10;;;;;;;-0.77;99.05;97722.98;103677;1312;24252;-26
2021/12/24 02:56:33;;;;;;;18.90;9.80;;;;;;;-0.97;99.49;97721.02;103654;1311;24277;-26
2021/12/24 02:59:00;;;;;;;24.50;13.40;;;;;;;-0.90;99.87;97716.34;103687;1300;22723;-26
2021/12/24 03:01:29;;;;;;;12.70;8.00;;;;;;;-0.97;100.00;97716.92;103737;1314;24110;-26
2021/12/24 03:03:56;;;;;;;20.50;11.40;;;;;;;-0.98;100.00;97713.54;103611;1314;24157;-26
2021/12/24 03:06:25;;;;;;;17.70;9.60;;;;;;;-0.95;100.00;97715.45;103739;1314;24651;-28
2021/12/24 03:08:51;;;;;;;21.90;9.40;;;;;;;-0.95;100.00;97711.46;103756;1310;22436;-30
2021/12/24 03:11:17;;;;;;;12.50;8.60;;;;;;;-0.81;100.00;97714.36;103742;1310;24132;-27
2021/12/24 03:13:43;;;;;;;14.90;9.90;;;;;;;-0.78;99.98;97709.28;103739;1312;24334;-29
2021/12/24 03:16:09;;;;;;;16.80;10.50;;;;;;;-0.84;100.00;97709.73;103712;1314;24151;-30
2021/12/24 03:18:37;;;;;;;16.30;10.60;;;;;;;-0.72;100.00;97701.07;103623;1314;24233;-26
2021/12/24 03:21:08;;;;;;;18.10;11.10;;;;;;;-0.79;99.99;97701.48;103630;1316;23059;-26
2021/12/24 03:26:04;;;;;;;21.60;11.20;;;;;;;-0.59;100.00;97695.75;103748;1314;24274;-30
2021/12/24 03:28:31;;;;;;;15.40;9.70;;;;;;;-0.65;100.00;97693.67;103684;1312;22463;-26
2021/12/24 03:30:57;;;;;;;18.40;8.80;;;;;;;-0.67;100.00;97693.92;103666;1313;22461;-30
2021/12/24 03:33:24;;;;;;;30.60;8.70;;;;;;;-0.56;100.00;97692.73;103702;1310;24148;-27
2021/12/24 03:35:50;;;;;;;13.50;8.60;;;;;;;-0.55;100.00;97695.05;103663;1310;24132;-32
2021/12/24 03:38:16;;;;;;;13.80;8.60;;;;;;;-0.64;100.00;97696.98;103672;1313;24188;-30
2021/12/24 03:40:42;;;;;;;16.50;9.90;;;;;;;-0.50;100.00;97692.61;103677;1314;24132;-28
2021/12/24 03:43:08;;;;;;;15.30;10.30;;;;;;;-0.55;100.00;97688.94;103720;1310;24189;-31
2021/12/24 03:45:42;;;;;;;14.30;9.40;;;;;;;-0.52;100.00;97691.86;103725;1313;24274;-30
2021/12/24 03:48:17;;;;;;;18.80;10.60;;;;;;;-0.63;100.00;97681.64;103683;1315;24287;-24
2021/12/24 03:50:53;;;;;;;17.40;9.70;;;;;;;-0.71;100.00;97676.85;103723;1314;24146;-26
2021/12/24 03:55:49;;;;;;;14.60;9.90;;;;;;;-0.53;100.00;97672.63;103770;1304;24260;-33
2021/12/24 03:58:15;;;;;;;19.90;11.10;;;;;;;-0.69;100.00;97669.27;103430;1310;315866;-26
2021/12/24 04:00:41;;;;;;;17.80;9.00;;;;;;;-0.71;100.00;97667.33;103692;1314;24173;-30
2021/12/24 04:03:07;;;;;;;15.50;10.40;;;;;;;-0.66;100.00;97663.52;103688;1307;24209;-27
2021/12/24 04:05:33;;;;;;;14.80;9.00;;;;;;;-0.58;100.00;97666.44;103692;1314;24173;-31
2021/12/24 04:07:59;;;;;;;16.50;10.30;;;;;;;-0.57;100.00;97668.30;103762;1315;22569;-27
2021/12/24 04:10:40;;;;;;;16.90;9.50;;;;;;;-0.62;100.00;97667.05;103692;1313;23002;-30
2021/12/24 04:13:07;;;;;;;17.30;8.90;;;;;;;-0.60;100.00;97664.20;103705;1314;24128;-31
2021/12/24 04:15:35;;;;;;;15.60;10.30;;;;;;;-0.61;100.00;97661.50;103684;1313;24272;-30
2021/12/24 04:18:01;;;;;;;21.70;9.20;;;;;;;-0.26;100.00;97654.83;103708;1300;22795;-27
2021/12/24 04:25:26;;;;;;;12.50;6.40;;;;;;;-0.30;100.00;97664.80;103708;1313;24256;-31
2021/12/24 04:27:54;;;;;;;19.70;8.90;;;;;;;-0.18;100.00;97660.11;103725;1308;24217;-31
2021/12/24 04:30:26;;;;;;;15.90;9.00;;;;;;;-0.46;100.00;97667.80;103751;1314;22734;-29
2021/12/24 05:10:09;;;;;;;16.00;7.40;;;;;;;-0.11;100.00;97668.86;103681;1303;22615;-28
2021/12/24 05:12:35;;;;;;;10.50;6.20;;;;;;;-0.00;100.00;97664.30;103682;1314;24147;-29
2021/12/24 05:15:03;;;;;;;15.30;7.30;;;;;;;0.01;100.00;97668.51;103629;1315;24132;-28
2021/12/24 05:17:47;;;;;;;10.80;6.70;;;;;;;-0.01;100.00;97668.10;103723;1311;24146;-27
2021/12/24 05:22:42;;;;;;;11.60;7.70;;;;;;;-0.04;100.00;97673.94;103443;1314;24251;-27
2021/12/24 05:25:08;;;;;;;14.60;7.50;;;;;;;0.04;100.00;97672.48;103630;1314;24118;-27
2021/12/24 05:27:35;;;;;;;8.60;5.10;;;;;;;0.06;100.00;97674.40;103668;1314;24151;-30
2021/12/24 05:30:01;;;;;;;11.40;7.00;;;;;;;0.04;100.00;97672.86;103639;1314;24199;-26
2021/12/24 05:32:27;;;;;;;7.20;5.00;;;;;;;0.10;100.00;97672.63;103664;1305;24199;-31
2021/12/24 05:34:52;;;;;;;10.50;6.80;;;;;;;0.09;100.00;97672.63;103674;1314;24256;-26
2021/12/24 05:37:18;;;;;;;8.20;6.20;;;;;;;0.03;100.00;97671.63;103599;1314;24234;-31
2021/12/24 05:39:44;;;;;;;11.10;6.10;;;;;;;0.07;100.00;97672.65;103654;1305;24248;-31
2021/12/24 05:42:10;;;;;;;9.30;5.70;;;;;;;0.20;100.00;97662.90;103611;1314;24150;-28
2021/12/24 05:44:36;;;;;;;11.70;6.60;;;;;;;0.33;100.00;97658.89;103720;1312;24159;-31
2021/12/24 05:47:02;;;;;;;13.00;7.40;;;;;;;0.14;100.00;97665.95;103690;1304;24228;-26
2021/12/24 05:49:28;;;;;;;12.70;7.20;;;;;;;0.10;100.00;97663.68;103710;1313;24158;-31
2021/12/24 05:51:54;;;;;;;13.40;7.80;;;;;;;0.32;100.00;97657.49;103717;1313;24222;-26
2021/12/24 05:54:20;;;;;;;13.50;6.80;;;;;;;0.51;100.00;97653.20;103706;1314;24330;-32
2021/12/24 05:56:46;;;;;;;17.70;6.90;;;;;;;0.45;100.00;97649.45;103528;1310;24159;-26
2021/12/24 05:59:12;;;;;;;19.20;8.10;;;;;;;0.33;100.00;97644.44;103698;1313;24239;-25
2021/12/24 06:01:39;;;;;;;24.40;7.40;;;;;;;0.33;100.00;97645.60;103713;1314;24239;-31
2021/12/24 06:04:05;;;;;;;17.40;9.70;;;;;;;0.51;100.00;97649.27;103797;1310;24159;-31
2021/12/24 06:06:31;;;;;;;25.30;10.70;;;;;;;0.45;100.00;97648.06;103731;1307;24252;-26
2021/12/24 06:08:56;;;;;;;14.70;8.20;;;;;;;0.55;99.94;97648.81;103665;1314;24412;-26
2021/12/24 06:11:22;;;;;;;21.10;5.90;;;;;;;0.45;99.93;97646.96;103686;1310;24230;-31
2021/12/24 06:13:52;;;;;;;12.50;5.70;;;;;;;0.57;100.00;97653.42;103705;1314;24144;-31
2021/12/24 06:16:18;;;;;;;14.70;7.50;;;;;;;0.85;99.33;97644.98;103694;1301;24293;-31
2021/12/24 06:18:45;;;;;;;9.40;5.70;;;;;;;0.69;99.33;97644.09;103682;1310;24146;-26
2021/12/24 06:21:11;;;;;;;10.30;6.00;;;;;;;0.75;99.32;97636.64;103702;1310;24121;-32
2021/12/24 06:23:38;;;;;;;17.70;9.40;;;;;;;0.62;99.58;97640.81;103745;1314;24284;-32
2021/12/24 06:26:04;;;;;;;14.10;8.10;;;;;;;0.49;100.00;97642.15;103720;1301;24274;-31
2021/12/24 06:28:30;;;;;;;11.00;5.90;;;;;;;0.65;99.94;97640.01;103769;1314;24085;-26
2021/12/24 06:30:56;;;;;;;14.10;8.50;;;;;;;0.67;99.91;97639.14;103719;1313;24242;-32
2021/12/24 06:33:22;;;;;;;13.30;7.00;;;;;;;0.38;99.92;97640.59;103716;1315;24187;-26
2021/12/24 06:35:48;;;;;;;12.60;7.10;;;;;;;0.32;100.00;97637.21;103713;1313;24334;-26
2021/12/24 06:38:14;;;;;;;8.10;5.90;;;;;;;0.59;100.00;97640.34;103677;1313;24178;-26
2021/12/24 06:40:40;;;;;;;15.10;7.60;;;;;;;0.58;100.00;97636.88;103730;1314;24149;-31
2021/12/24 06:43:06;;;;;;;10.70;6.50;;;;;;;0.68;100.00;97635.35;103728;1310;24168;-32
2021/12/24 06:45:32;;;;;;;13.60;7.30;;;;;;;0.65;99.97;97639.73;103716;1310;24158;-29
2021/12/24 06:47:58;;;;;;;8.30;4.60;;;;;;;0.64;100.00;97629.49;103688;1314;24147;-31
2021/12/24 06:50:24;;;;;;;16.70;9.70;;;;;;;0.54;100.00;97626.58;103699;1313;24121;-31
2021/12/24 06:52:50;;;;;;;11.10;5.60;;;;;;;0.26;100.00;97637.06;103713;1314;24258;-31
2021/12/24 06:55:16;;;;;;;13.60;6.60;;;;;;;0.58;100.00;97637.20;103882;1311;24117;-32
2021/12/24 06:57:43;;;;;;;16.50;9.00;;;;;;;0.57;100.00;97635.30;103724;1313;24801;-31
2021/12/24 07:00:11;;;;;;;11.50;7.20;;;;;;;0.66;100.00;97634.78;103726;1313;24156;-32
2021/12/24 07:02:36;;;;;;;17.90;10.60;;;;;;;0.53;100.00;97625.89;103781;1314;24381;-32
2021/12/24 07:05:02;;;;;;;16.60;9.20;;;;;;;0.49;100.00;97629.35;103696;1316;24216;-32
2021/12/24 07:07:29;;;;;;;13.70;7.80;;;;;;;0.55;100.00;97636.91;103726;1312;24174;-26
2021/12/24 07:09:55;;;;;;;11.00;6.50;;;;;;;0.61;100.00;97642.48;103723;1314;24201;-32
2021/12/24 07:12:21;;;;;;;13.50;6.50;;;;;;;0.74;100.00;97642.14;103726;1310;24162;-27
2021/12/24 07:14:49;;;;;;;12.10;8.90;;;;;;;0.70;100.00;97640.80;103718;1313;22462;-27
2021/12/24 07:17:15;;;;;;;24.20;9.80;;;;;;;0.51;100.00;97645.32;103672;1303;24153;-26
2021/12/24 07:19:40;;;;;;;9.10;5.80;;;;;;;0.26;100.00;97644.79;103701;1310;22612;-26
2021/12/24 07:22:07;;;;;;;14.90;6.60;;;;;;;0.60;100.00;97633.13;103734;1313;24396;-29
2021/12/24 07:24:34;;;;;;;9.00;6.40;;;;;;;0.69;100.00;97636.48;103760;1310;24225;-27
2021/12/24 07:27:01;;;;;;;13.30;8.70;;;;;;;0.37;100.00;97639.63;103747;1313;24282;-32
2021/12/24 07:29:27;;;;;;;14.30;8.30;;;;;;;0.58;100.00;97631.64;103709;1314;24224;-30
2021/12/24 07:31:53;;;;;;;9.70;5.40;;;;;;;0.52;100.00;97629.66;103755;1313;24177;-31
2021/12/24 07:34:19;;;;;;;10.50;7.90;;;;;;;0.52;100.00;97629.78;103730;1314;24145;-32
2021/12/24 07:36:45;;;;;;;10.20;6.60;;;;;;;0.67;100.00;97631.13;103703;1314;22583;-27
2021/12/24 07:39:11;;;;;;;10.10;5.70;;;;;;;0.94;100.00;97624.63;103742;1311;24249;-32
2021/12/24 07:41:37;;;;;;;10.30;5.50;;;;;;;0.61;100.00;97620.71;103744;1310;22723;-27
2021/12/24 07:44:04;;;;;;;13.20;6.20;;;;;;;0.58;100.00;97625.42;103685;1312;24357;-26
2021/12/24 07:46:37;;;;;;;7.90;5.50;;;;;;;0.64;100.00;97632.14;103721;1310;24242;-26
2021/12/24 07:49:17;;;;;;;8.10;5.10;;;;;;;0.69;100.00;97631.91;103741;1301;24147;-31
2021/12/24 07:54:12;;;;;;;6.20;4.60;;;;;;;0.75;100.00;97617.47;103794;1314;24191;-26
2021/12/24 07:56:38;;;;;;;7.50;4.90;;;;;;;0.94;100.00;97615.60;103731;1313;24153;-31
2021/12/24 07:59:04;;;;;;;10.10;5.30;;;;;;;0.93;100.00;97613.30;103699;1299;22438;-28
2021/12/24 08:01:30;;;;;;;7.60;5.60;;;;;;;0.88;100.00;97610.55;103728;1314;24203;-26
2021/12/24 08:03:56;;;;;;;4.70;3.20;;;;;;;0.99;100.00;97606.41;103714;1314;24162;-32
2021/12/24 08:06:24;;;;;;;8.70;4.50;;;;;;;1.07;100.00;97612.38;103778;1314;24114;-32
2021/12/24 08:08:49;;;;;;;10.20;6.30;;;;;;;1.02;100.00;97611.34;103705;1298;22758;-31
2021/12/24 08:11:15;;;;;;;9.40;4.50;;;;;;;0.95;100.00;97616.76;103729;1310;22571;-32
2021/12/24 08:13:42;;;;;;;8.90;4.70;;;;;;;0.93;100.00;97615.62;103726;1311;24249;-27
2021/12/24 08:16:08;;;;;;;8.00;5.10;;;;;;;0.86;100.00;97611.26;103749;1313;24158;-31
2021/12/24 08:18:34;;;;;;;6.90;3.70;;;;;;;0.98;100.00;97607.94;103745;1312;24361;-32
2021/12/24 08:21:01;;;;;;;6.20;4.60;;;;;;;0.85;100.00;97611.16;103803;1314;24190;-32
2021/12/24 08:23:27;;;;;;;6.60;4.20;;;;;;;1.13;100.00;97611.14;103721;1314;24148;-31
2021/12/24 08:25:58;;;;;;;24.70;7.20;;;;;;;1.34;100.00;97606.48;103687;1313;24228;-31
2021/12/24 08:28:24;;;;;;;13.80;6.10;;;;;;;1.33;100.00;97602.36;103794;1314;24263;-32
2021/12/24 08:30:50;;;;;;;10.10;5.80;;;;;;;1.47;99.61;97599.52;103797;1312;24272;-32
2021/12/24 08:33:16;;;;;;;5.40;4.20;;;;;;;1.12;99.80;97602.61;103625;1313;24245;-31
2021/12/24 08:35:42;;;;;;;3.20;2.30;;;;;;;1.35;100.00;97597.17;103785;1311;24167;-32
2021/12/24 08:38:08;;;;;;;5.70;4.10;;;;;;;1.51;99.59;97593.44;103778;1304;24273;-31
2021/12/24 08:40:35;;;;;;;12.00;4.50;;;;;;;1.51;99.42;97588.27;103784;1314;24241;-26
2021/12/24 08:43:01;;;;;;;6.00;3.70;;;;;;;1.48;99.45;97589.48;103754;1305;23772;-30
2021/12/24 08:45:27;;;;;;;7.70;4.00;;;;;;;1.48;99.30;97594.10;103744;1310;24235;-32
2021/12/24 08:47:53;;;;;;;9.60;5.10;;;;;;;1.26;99.73;97592.27;103693;1307;24188;-26
2021/12/24 08:50:18;;;;;;;6.90;5.20;;;;;;;1.50;99.69;97591.39;103688;1307;24121;-32
2021/12/24 08:52:46;;;;;;;7.50;4.50;;;;;;;1.25;100.00;97590.89;103759;1314;24719;-26
2021/12/24 08:55:14;;;;;;;9.10;5.00;;;;;;;1.13;100.00;97595.02;103772;1311;24135;-26
2021/12/24 08:57:40;;;;;;;7.40;4.30;;;;;;;1.37;100.00;97587.08;103776;1310;24220;-26
2021/12/24 09:00:09;;;;;;;10.30;6.00;;;;;;;1.69;99.23;97584.33;103646;1315;24254;-32
2021/12/24 09:02:36;;;;;;;5.50;4.10;;;;;;;1.45;99.71;97588.59;103749;1313;24121;-26
2021/12/24 09:05:04;;;;;;;9.30;4.80;;;;;;;1.49;99.72;97579.66;103826;1304;24270;-32
2021/12/24 09:07:29;;;;;;;7.50;4.30;;;;;;;1.65;99.18;97577.55;103587;1314;24238;-32
2021/12/24 09:09:55;;;;;;;12.10;6.80;;;;;;;1.53;99.35;97573.04;103818;1314;22438;-26
2021/12/24 09:12:21;;;;;;;7.50;4.10;;;;;;;1.71;98.73;97574.73;103912;1310;24156;-28
2021/12/24 09:14:47;;;;;;;9.60;6.10;;;;;;;1.63;98.85;97567.71;103870;1314;24258;-26
2021/12/24 09:17:13;;;;;;;6.00;3.80;;;;;;;1.66;99.12;97565.98;103792;1312;24182;-26
2021/12/24 09:19:45;;;;;;;6.30;3.30;;;;;;;1.73;98.92;97564.05;103786;1312;24209;-26
2021/12/24 09:22:16;;;;;;;6.30;3.90;;;;;;;1.58;99.41;97570.30;103756;1314;24132;-32
2021/12/24 09:24:43;;;;;;;10.50;5.20;;;;;;;1.58;99.96;97570.17;103875;1312;24133;-31
2021/12/24 09:27:09;;;;;;;3.70;3.20;;;;;;;1.38;100.00;97568.28;103806;1314;22725;-27
2021/12/24 09:29:35;;;;;;;3.30;2.10;;;;;;;1.63;100.00;97561.59;103738;1312;24175;-32
2021/12/24 09:32:01;;;;;;;6.30;3.50;;;;;;;1.93;99.72;97546.81;103763;1312;24333;-32
2021/12/24 09:34:26;;;;;;;9.00;4.90;;;;;;;1.92;99.11;97549.96;103889;1314;24282;-27
2021/12/24 09:36:52;;;;;;;6.90;4.00;;;;;;;1.73;99.76;97556.67;103812;1312;24232;-29
2021/12/24 09:39:18;;;;;;;5.90;3.60;;;;;;;1.72;99.94;97554.05;103683;1314;24265;-26
2021/12/24 09:41:44;;;;;;;7.00;4.70;;;;;;;1.59;100.00;97557.98;103719;1299;22788;-31
2021/12/24 09:44:10;;;;;;;5.90;4.70;;;;;;;1.59;100.00;97553.53;103719;1310;24232;-26
2021/12/24 09:46:40;;;;;;;5.40;2.90;;;;;;;1.82;100.00;97551.20;103815;1314;24253;-26
2021/12/24 09:49:07;;;;;;;5.80;1.70;;;;;;;1.90;100.00;97545.27;103759;1313;24289;-32
2021/12/24 09:51:37;;;;;;;5.00;3.40;;;;;;;1.90;100.00;97546.85;103730;1314;24148;-32
2021/12/24 09:54:02;;;;;;;8.30;5.50;;;;;;;1.90;100.00;97543.02;103517;1307;23050;-26
2021/12/24 09:56:28;;;;;;;4.80;3.40;;;;;;;1.72;100.00;97542.89;103694;1311;24367;-32
2021/12/24 09:58:54;;;;;;;4.30;3.90;;;;;;;1.71;100.00;97538.00;103561;1313;24293;-31
2021/12/24 10:01:27;;;;;;;5.30;3.60;;;;;;;1.79;100.00;97530.92;103765;1313;24265;-32
2021/12/24 10:04:00;;;;;;;5.40;3.10;;;;;;;1.75;100.00;97535.78;103738;1310;24159;-31
2021/12/24 10:06:26;;;;;;;6.70;3.10;;;;;;;1.79;100.00;97533.05;103706;1313;24148;-32
2021/12/24 10:09:00;;;;;;;5.00;3.90;;;;;;;1.95;100.00;97530.34;103719;1311;24213;-26
2021/12/24 10:11:29;;;;;;;5.60;3.60;;;;;;;2.08;100.00;97528.92;103725;1313;22778;-32
2021/12/24 10:13:56;;;;;;;4.90;3.70;;;;;;;1.96;100.00;97532.71;103817;1302;22454;-32
2021/12/24 10:16:23;;;;;;;5.90;3.50;;;;;;;2.04;100.00;97528.02;103790;1311;24182;-27
2021/12/24 10:18:53;;;;;;;5.50;3.60;;;;;;;2.12;100.00;97524.44;104131;1313;24183;-27
2021/12/24 10:21:24;;;;;;;3.80;2.80;;;;;;;2.17;100.00;97519.71;104146;1310;24160;-27
2021/12/24 10:23:52;;;;;;;7.10;3.80;;;;;;;2.41;100.00;97518.80;103825;1314;24121;-26
2021/12/24 10:26:23;;;;;;;6.10;3.00;;;;;;;2.55;100.00;97514.86;103832;1310;22733;-31
2021/12/24 10:28:53;;;;;;;6.50;4.40;;;;;;;2.46;100.00;97509.30;103738;1312;24159;-32
2021/12/24 10:31:21;;;;;;;7.90;3.80;;;;;;;2.31;100.00;97512.38;103728;1310;24244;-25
2021/12/24 10:33:53;;;;;;;10.70;5.20;;;;;;;2.34;100.00;97514.45;103744;1312;24225;-30
2021/12/24 10:36:19;;;;;;;8.10;6.30;;;;;;;2.34;100.00;97509.89;103754;1314;22889;-31
2021/12/24 10:38:54;;;;;;;11.90;4.90;;;;;;;2.14;100.00;97504.48;103733;1304;22476;-31
2021/12/24 10:41:20;;;;;;;7.60;4.60;;;;;;;2.10;100.00;97502.02;103707;1310;22722;-31
2021/12/24 10:43:46;;;;;;;6.10;4.80;;;;;;;2.23;100.00;97502.23;103756;1312;24363;-26
2021/12/24 10:46:12;;;;;;;14.30;6.10;;;;;;;2.37;100.00;97498.58;103826;1314;24151;-30
2021/12/24 10:48:45;;;;;;;7.10;4.30;;;;;;;2.31;100.00;97498.16;103746;1312;24148;-30
2021/12/24 10:51:20;;;;;;;7.00;3.30;;;;;;;2.45;100.00;97493.84;103766;1314;24121;-30
2021/12/24 10:53:52;;;;;;;6.30;3.50;;;;;;;2.58;100.00;97487.23;103893;1314;22812;-32
2021/12/24 10:56:24;;;;;;;5.60;3.70;;;;;;;2.61;100.00;97489.67;103954;1312;24309;-25
2021/12/24 10:58:49;;;;;;;8.00;4.40;;;;;;;2.66;100.00;97490.13;103787;1314;24167;-25
2021/12/24 11:01:16;;;;;;;7.10;4.20;;;;;;;2.43;100.00;97490.85;103725;1304;24272;-25
2021/12/24 11:03:43;;;;;;;9.10;4.60;;;;;;;2.51;100.00;97489.70;103737;1313;24664;-25
2021/12/24 11:06:11;;;;;;;3.40;2.70;;;;;;;2.53;100.00;97480.04;103753;1311;24296;-25
2021/12/24 11:08:37;;;;;;;9.50;3.10;;;;;;;2.61;100.00;97482.59;103740;1310;24188;-30
2021/12/24 11:11:06;;;;;;;8.20;5.10;;;;;;;2.70;100.00;97474.94;103710;1304;24285;-30
2021/12/24 11:13:39;;;;;;;6.60;5.40;;;;;;;2.65;100.00;97472.41;103736;1313;24251;-25
2021/12/24 11:16:06;;;;;;;5.10;3.90;;;;;;;2.76;100.00;97466.00;103727;1304;22580;-31
2021/12/24 11:18:34;;;;;;;8.90;5.50;;;;;;;2.86;100.00;97464.06;103828;1310;24244;-25
2021/12/24 11:21:02;;;;;;;6.80;5.20;;;;;;;2.73;100.00;97468.73;103788;1298;22730;-30
2021/12/24 11:23:31;;;;;;;6.00;4.40;;;;;;;2.80;100.00;97464.67;103736;1313;24132;-26
2021/12/24 11:25:58;;;;;;;5.00;3.00;;;;;;;2.81;100.00;97458.81;103787;1313;24163;-31
2021/12/24 11:28:26;;;;;;;6.80;3.20;;;;;;;2.88;100.00;97457.60;103752;1312;24204;-25
2021/12/24 11:30:54;;;;;;;4.80;3.80;;;;;;;2.82;100.00;97457.36;103895;1314;24189;-30
2021/12/24 11:33:22;;;;;;;4.30;2.40;;;;;;;2.87;100.00;97455.46;104028;1314;24126;-30
2021/12/24 11:35:49;;;;;;;5.10;3.10;;;;;;;2.89;100.00;97462.05;104162;1305;22439;-26
2021/12/24 11:38:18;;;;;;;5.50;2.80;;;;;;;2.86;100.00;97457.59;104078;1312;24301;-25
2021/12/24 11:40:45;;;;;;;5.30;2.80;;;;;;;2.90;100.00;97462.00;104033;1304;24188;-25
2021/12/24 11:43:11;;;;;;;6.70;3.60;;;;;;;2.99;100.00;97460.52;104075;1314;24147;-30
2021/12/24 11:45:37;;;;;;;4.70;3.20;;;;;;;3.24;100.00;97453.23;103933;1314;22620;-25
2021/12/24 11:48:03;;;;;;;4.00;2.80;;;;;;;3.33;100.00;97439.45;103765;1307;24180;-25
2021/12/24 11:50:29;;;;;;;4.20;2.30;;;;;;;3.47;100.00;97430.27;103781;1302;22459;-25
2021/12/24 11:52:57;;;;;;;3.00;2.40;;;;;;;3.39;100.00;97429.27;103933;1312;24119;-30
2021/12/24 11:55:24;;;;;;;6.50;3.40;;;;;;;3.27;100.00;97428.98;103865;1315;22893;-30
2021/12/24 11:57:51;;;;;;;4.70;3.80;;;;;;;3.40;100.00;97426.24;103427;1312;505921;-25
2021/12/24 12:00:21;;;;;;;3.90;3.00;;;;;;;3.47;100.00;97426.23;103823;1314;24132;-25
2021/12/24 12:02:47;;;;;;;9.20;3.60;;;;;;;3.56;100.00;97417.39;103881;1314;24215;-25
2021/12/24 12:05:14;;;;;;;9.00;4.80;;;;;;;3.24;100.00;97411.34;103772;1314;24263;-29
2021/12/24 12:07:40;;;;;;;12.10;5.00;;;;;;;3.26;100.00;97411.20;103738;1316;24301;-25
2021/12/24 12:10:07;;;;;;;8.20;5.20;;;;;;;3.25;100.00;97412.84;103796;1312;23092;-25
2021/12/24 12:12:34;;;;;;;5.20;4.10;;;;;;;3.36;100.00;97413.61;104014;1314;24326;-31
2021/12/24 12:15:06;;;;;;;4.00;3.00;;;;;;;3.45;100.00;97414.42;103778;1314;24117;-26
2021/12/24 12:17:32;;;;;;;7.60;4.70;;;;;;;3.21;100.00;97414.09;103847;1315;22498;-26
2021/12/24 12:20:00;;;;;;;6.10;2.90;;;;;;;3.15;100.00;97413.82;103707;1304;24189;-30
2021/12/24 12:22:34;;;;;;;2.90;1.80;;;;;;;3.40;100.00;97410.04;103763;1313;24313;-31
2021/12/24 12:25:09;;;;;;;4.30;2.90;;;;;;;3.52;100.00;97412.57;103557;1316;24090;-26
2021/12/24 12:27:38;;;;;;;6.30;3.90;;;;;;;3.29;100.00;97414.70;103750;1315;22536;-31
2021/12/24 12:30:28;;;;;;;6.60;3.60;;;;;;;3.21;100.00;97411.69;103861;1311;24380;-31
2021/12/24 12:33:03;;;;;;;3.50;2.10;;;;;;;3.45;100.00;97407.31;103841;1312;24160;-30
2021/12/24 12:35:49;;;;;;;6.20;3.00;;;;;;;3.79;100.00;97401.88;103757;1316;22480;-26
2021/12/24 12:38:21;;;;;;;5.30;4.00;;;;;;;3.97;99.84;97399.03;103800;1313;24177;-26
2021/12/24 12:40:48;;;;;;;7.50;2.90;;;;;;;3.76;99.72;97398.27;103917;1312;22583;-26
2021/12/24 12:43:14;;;;;;;5.30;2.80;;;;;;;3.67;100.00;97400.91;103980;1313;24165;-31
2021/12/24 12:45:50;;;;;;;4.30;2.50;;;;;;;3.60;100.00;97401.95;104050;1312;22602;-26
2021/12/24 12:48:22;;;;;;;3.20;1.90;;;;;;;3.64;100.00;97401.48;103995;1305;24295;-25
2021/12/24 12:50:52;;;;;;;4.80;2.70;;;;;;;3.93;100.00;97392.85;103947;1314;24255;-31
2021/12/24 12:53:22;;;;;;;4.80;3.10;;;;;;;4.01;99.94;97393.19;104140;1311;24221;-26
2021/12/24 12:55:49;;;;;;;7.40;4.00;;;;;;;4.17;99.42;97391.39;103867;1310;24312;-27